sensor_id;sensor_type;location;lat;lon;timestamp;P1;durP1;ratioP1;P2;durP2;ratioP2
33491;SDS011;20010;51.488;7.232;2023-07-31T00:02:09;9.23;;;6.15;;
33491;SDS011;20010;51.488;7.232;2023-07-31T00:04:36;8.70;;;6.05;;
33491;SDS011;20010;51.488;7.232;2023-07-31T00:07:03;9.73;;;6.88;;
33491;SDS011;20010;51.488;7.232;2023-07-31T00:09:30;10.77;;;6.65;;
33491;SDS011;20010;51.488;7.232;2023-07-31T00:11:57;7.38;;;6.07;;
33491;SDS011;20010;51.488;7.232;2023-07-31T00:14:23;9.40;;;6.25;;
33491;SDS011;20010;51.488;7.232;2023-07-31T00:16:50;11.57;;;6.95;;
33491;SDS011;20010;51.488;7.232;2023-07-31T00:19:17;7.72;;;6.60;;
33491;SDS011;20010;51.488;7.232;2023-07-31T00:21:44;7.47;;;6.22;;
33491;SDS011;20010;51.488;7.232;2023-07-31T00:24:11;10.40;;;6.65;;
33491;SDS011;20010;51.488;7.232;2023-07-31T00:26:37;9.85;;;6.80;;
33491;SDS011;20010;51.488;7.232;2023-07-31T00:29:04;10.23;;;7.10;;
33491;SDS011;20010;51.488;7.232;2023-07-31T00:31:31;10.90;;;7.05;;
33491;SDS011;20010;51.488;7.232;2023-07-31T00:33:57;10.13;;;6.90;;
33491;SDS011;20010;51.488;7.232;2023-07-31T00:36:24;11.52;;;7.22;;
33491;SDS011;20010;51.488;7.232;2023-07-31T00:38:51;12.05;;;7.38;;
33491;SDS011;20010;51.488;7.232;2023-07-31T00:41:17;12.43;;;7.70;;
33491;SDS011;20010;51.488;7.232;2023-07-31T00:43:44;15.57;;;7.75;;
33491;SDS011;20010;51.488;7.232;2023-07-31T00:46:10;11.77;;;7.80;;
33491;SDS011;20010;51.488;7.232;2023-07-31T00:48:37;14.30;;;8.02;;
33491;SDS011;20010;51.488;7.232;2023-07-31T00:51:05;13.00;;;7.85;;
33491;SDS011;20010;51.488;7.232;2023-07-31T00:53:32;13.18;;;8.55;;
33491;SDS011;20010;51.488;7.232;2023-07-31T00:55:59;10.77;;;8.23;;
33491;SDS011;20010;51.488;7.232;2023-07-31T00:58:26;14.13;;;8.13;;
33491;SDS011;20010;51.488;7.232;2023-07-31T01:00:52;14.35;;;8.68;;
33491;SDS011;20010;51.488;7.232;2023-07-31T01:03:19;14.77;;;8.25;;
33491;SDS011;20010;51.488;7.232;2023-07-31T01:06:08;14.73;;;8.18;;
33491;SDS011;20010;51.488;7.232;2023-07-31T01:11:29;14.23;;;7.70;;
33491;SDS011;20010;51.488;7.232;2023-07-31T01:13:57;12.65;;;7.03;;
33491;SDS011;20010;51.488;7.232;2023-07-31T01:16:25;13.32;;;7.45;;
33491;SDS011;20010;51.488;7.232;2023-07-31T01:18:52;13.20;;;8.02;;
33491;SDS011;20010;51.488;7.232;2023-07-31T01:25:15;10.32;;;6.93;;
33491;SDS011;20010;51.488;7.232;2023-07-31T01:27:12;13.07;;;7.28;;
33491;SDS011;20010;51.488;7.232;2023-07-31T01:29:47;15.52;;;7.40;;
33491;SDS011;20010;51.488;7.232;2023-07-31T01:32:18;12.15;;;6.70;;
33491;SDS011;20010;51.488;7.232;2023-07-31T01:34:46;11.90;;;7.55;;
33491;SDS011;20010;51.488;7.232;2023-07-31T01:37:13;12.00;;;7.60;;
33491;SDS011;20010;51.488;7.232;2023-07-31T01:39:39;12.25;;;7.82;;
33491;SDS011;20010;51.488;7.232;2023-07-31T01:42:06;16.05;;;7.85;;
33491;SDS011;20010;51.488;7.232;2023-07-31T01:44:33;10.35;;;7.18;;
33491;SDS011;20010;51.488;7.232;2023-07-31T01:47:01;12.13;;;7.38;;
33491;SDS011;20010;51.488;7.232;2023-07-31T01:49:27;11.85;;;6.70;;
33491;SDS011;20010;51.488;7.232;2023-07-31T01:51:54;14.55;;;7.20;;
33491;SDS011;20010;51.488;7.232;2023-07-31T01:54:20;11.07;;;6.80;;
33491;SDS011;20010;51.488;7.232;2023-07-31T01:56:47;13.05;;;6.28;;
33491;SDS011;20010;51.488;7.232;2023-07-31T01:59:13;11.35;;;6.70;;
33491;SDS011;20010;51.488;7.232;2023-07-31T02:01:40;14.15;;;7.00;;
33491;SDS011;20010;51.488;7.232;2023-07-31T02:04:07;9.07;;;6.78;;
33491;SDS011;20010;51.488;7.232;2023-07-31T02:06:33;12.73;;;6.63;;
33491;SDS011;20010;51.488;7.232;2023-07-31T02:09:00;10.02;;;7.78;;
33491;SDS011;20010;51.488;7.232;2023-07-31T02:11:26;11.95;;;6.88;;
33491;SDS011;20010;51.488;7.232;2023-07-31T02:13:53;10.00;;;6.63;;
33491;SDS011;20010;51.488;7.232;2023-07-31T02:16:19;12.93;;;7.28;;
33491;SDS011;20010;51.488;7.232;2023-07-31T02:18:46;12.40;;;6.93;;
33491;SDS011;20010;51.488;7.232;2023-07-31T02:21:12;9.18;;;6.55;;
33491;SDS011;20010;51.488;7.232;2023-07-31T02:23:39;9.80;;;6.70;;
33491;SDS011;20010;51.488;7.232;2023-07-31T02:26:05;12.68;;;6.68;;
33491;SDS011;20010;51.488;7.232;2023-07-31T02:28:32;12.48;;;6.90;;
33491;SDS011;20010;51.488;7.232;2023-07-31T02:30:59;12.70;;;7.22;;
33491;SDS011;20010;51.488;7.232;2023-07-31T02:33:26;11.30;;;6.10;;
33491;SDS011;20010;51.488;7.232;2023-07-31T02:35:53;10.27;;;6.70;;
33491;SDS011;20010;51.488;7.232;2023-07-31T02:38:19;12.10;;;6.38;;
33491;SDS011;20010;51.488;7.232;2023-07-31T02:40:46;11.63;;;7.07;;
33491;SDS011;20010;51.488;7.232;2023-07-31T02:43:14;13.18;;;6.55;;
33491;SDS011;20010;51.488;7.232;2023-07-31T02:45:40;8.63;;;6.72;;
33491;SDS011;20010;51.488;7.232;2023-07-31T02:48:07;10.02;;;6.55;;
33491;SDS011;20010;51.488;7.232;2023-07-31T02:50:33;11.73;;;6.88;;
33491;SDS011;20010;51.488;7.232;2023-07-31T02:53:00;13.52;;;6.72;;
33491;SDS011;20010;51.488;7.232;2023-07-31T02:55:27;11.45;;;6.88;;
33491;SDS011;20010;51.488;7.232;2023-07-31T02:57:53;15.93;;;8.20;;
33491;SDS011;20010;51.488;7.232;2023-07-31T03:00:20;12.60;;;7.03;;
33491;SDS011;20010;51.488;7.232;2023-07-31T03:02:47;12.73;;;6.88;;
33491;SDS011;20010;51.488;7.232;2023-07-31T03:05:13;12.93;;;7.18;;
33491;SDS011;20010;51.488;7.232;2023-07-31T03:07:40;11.48;;;7.40;;
33491;SDS011;20010;51.488;7.232;2023-07-31T03:10:07;13.02;;;7.57;;
33491;SDS011;20010;51.488;7.232;2023-07-31T03:12:34;13.52;;;6.95;;
33491;SDS011;20010;51.488;7.232;2023-07-31T03:15:00;14.10;;;7.60;;
33491;SDS011;20010;51.488;7.232;2023-07-31T03:17:27;12.82;;;7.55;;
33491;SDS011;20010;51.488;7.232;2023-07-31T03:19:53;15.93;;;7.78;;
33491;SDS011;20010;51.488;7.232;2023-07-31T03:22:20;12.27;;;7.43;;
33491;SDS011;20010;51.488;7.232;2023-07-31T03:24:47;11.80;;;7.45;;
33491;SDS011;20010;51.488;7.232;2023-07-31T03:27:13;12.75;;;7.80;;
33491;SDS011;20010;51.488;7.232;2023-07-31T03:29:40;13.90;;;7.80;;
33491;SDS011;20010;51.488;7.232;2023-07-31T03:32:06;12.35;;;7.65;;
33491;SDS011;20010;51.488;7.232;2023-07-31T03:34:33;10.48;;;7.05;;
33491;SDS011;20010;51.488;7.232;2023-07-31T03:37:00;12.13;;;6.10;;
33491;SDS011;20010;51.488;7.232;2023-07-31T03:39:26;11.55;;;7.50;;
33491;SDS011;20010;51.488;7.232;2023-07-31T03:41:53;10.70;;;6.57;;
33491;SDS011;20010;51.488;7.232;2023-07-31T03:44:19;10.23;;;6.68;;
33491;SDS011;20010;51.488;7.232;2023-07-31T03:46:46;13.25;;;7.45;;
33491;SDS011;20010;51.488;7.232;2023-07-31T03:49:13;11.13;;;7.05;;
33491;SDS011;20010;51.488;7.232;2023-07-31T03:51:39;12.77;;;7.50;;
33491;SDS011;20010;51.488;7.232;2023-07-31T03:54:06;12.57;;;7.13;;
33491;SDS011;20010;51.488;7.232;2023-07-31T03:56:34;9.77;;;6.28;;
33491;SDS011;20010;51.488;7.232;2023-07-31T03:59:01;11.55;;;7.10;;
33491;SDS011;20010;51.488;7.232;2023-07-31T04:01:28;9.55;;;7.18;;
33491;SDS011;20010;51.488;7.232;2023-07-31T04:03:54;8.88;;;6.80;;
33491;SDS011;20010;51.488;7.232;2023-07-31T04:06:21;10.95;;;7.20;;
33491;SDS011;20010;51.488;7.232;2023-07-31T04:08:48;14.55;;;7.50;;
33491;SDS011;20010;51.488;7.232;2023-07-31T04:11:14;11.45;;;6.63;;
33491;SDS011;20010;51.488;7.232;2023-07-31T04:13:41;11.88;;;6.53;;
33491;SDS011;20010;51.488;7.232;2023-07-31T04:16:07;13.27;;;7.68;;
33491;SDS011;20010;51.488;7.232;2023-07-31T04:18:34;15.15;;;7.18;;
33491;SDS011;20010;51.488;7.232;2023-07-31T04:21:00;13.75;;;6.80;;
33491;SDS011;20010;51.488;7.232;2023-07-31T04:23:28;20.45;;;7.20;;
33491;SDS011;20010;51.488;7.232;2023-07-31T04:25:55;10.07;;;6.53;;
33491;SDS011;20010;51.488;7.232;2023-07-31T04:28:22;9.23;;;6.82;;
33491;SDS011;20010;51.488;7.232;2023-07-31T04:30:48;9.70;;;6.35;;
33491;SDS011;20010;51.488;7.232;2023-07-31T04:33:16;11.73;;;6.63;;
33491;SDS011;20010;51.488;7.232;2023-07-31T04:35:48;9.90;;;6.78;;
33491;SDS011;20010;51.488;7.232;2023-07-31T04:38:19;11.45;;;6.95;;
33491;SDS011;20010;51.488;7.232;2023-07-31T04:40:46;10.63;;;7.65;;
33491;SDS011;20010;51.488;7.232;2023-07-31T04:43:13;11.52;;;6.85;;
33491;SDS011;20010;51.488;7.232;2023-07-31T04:45:42;11.93;;;6.85;;
33491;SDS011;20010;51.488;7.232;2023-07-31T04:48:11;9.23;;;7.43;;
33491;SDS011;20010;51.488;7.232;2023-07-31T04:50:37;11.30;;;6.82;;
33491;SDS011;20010;51.488;7.232;2023-07-31T04:53:04;8.95;;;6.43;;
33491;SDS011;20010;51.488;7.232;2023-07-31T04:55:30;10.57;;;6.57;;
33491;SDS011;20010;51.488;7.232;2023-07-31T04:57:58;9.60;;;6.80;;
33491;SDS011;20010;51.488;7.232;2023-07-31T05:00:25;11.75;;;6.93;;
33491;SDS011;20010;51.488;7.232;2023-07-31T05:02:51;11.27;;;6.65;;
33491;SDS011;20010;51.488;7.232;2023-07-31T05:08:17;8.80;;;6.85;;
33491;SDS011;20010;51.488;7.232;2023-07-31T05:10:45;14.20;;;6.80;;
33491;SDS011;20010;51.488;7.232;2023-07-31T05:13:12;8.68;;;7.70;;
33491;SDS011;20010;51.488;7.232;2023-07-31T05:15:38;7.80;;;6.97;;
33491;SDS011;20010;51.488;7.232;2023-07-31T05:18:05;10.95;;;7.32;;
33491;SDS011;20010;51.488;7.232;2023-07-31T05:20:31;10.57;;;7.22;;
33491;SDS011;20010;51.488;7.232;2023-07-31T05:22:58;8.45;;;6.50;;
33491;SDS011;20010;51.488;7.232;2023-07-31T05:25:24;15.13;;;7.45;;
33491;SDS011;20010;51.488;7.232;2023-07-31T05:27:51;9.85;;;7.28;;
33491;SDS011;20010;51.488;7.232;2023-07-31T05:30:18;7.78;;;6.47;;
33491;SDS011;20010;51.488;7.232;2023-07-31T05:32:44;10.48;;;7.07;;
33491;SDS011;20010;51.488;7.232;2023-07-31T05:35:11;8.60;;;7.25;;
33491;SDS011;20010;51.488;7.232;2023-07-31T05:37:37;8.25;;;6.78;;
33491;SDS011;20010;51.488;7.232;2023-07-31T05:40:04;10.02;;;6.68;;
33491;SDS011;20010;51.488;7.232;2023-07-31T05:42:31;7.30;;;6.60;;
33491;SDS011;20010;51.488;7.232;2023-07-31T05:44:58;8.27;;;6.90;;
33491;SDS011;20010;51.488;7.232;2023-07-31T05:47:24;11.95;;;8.25;;
33491;SDS011;20010;51.488;7.232;2023-07-31T05:49:51;13.18;;;7.32;;
33491;SDS011;20010;51.488;7.232;2023-07-31T05:52:19;10.68;;;7.25;;
33491;SDS011;20010;51.488;7.232;2023-07-31T05:54:45;9.60;;;7.35;;
33491;SDS011;20010;51.488;7.232;2023-07-31T05:57:12;9.75;;;7.55;;
33491;SDS011;20010;51.488;7.232;2023-07-31T05:59:38;13.23;;;8.20;;
33491;SDS011;20010;51.488;7.232;2023-07-31T06:02:05;10.02;;;7.43;;
33491;SDS011;20010;51.488;7.232;2023-07-31T06:04:32;15.43;;;7.95;;
33491;SDS011;20010;51.488;7.232;2023-07-31T06:06:59;14.52;;;8.43;;
33491;SDS011;20010;51.488;7.232;2023-07-31T06:09:26;11.35;;;7.88;;
33491;SDS011;20010;51.488;7.232;2023-07-31T06:11:53;14.05;;;8.70;;
33491;SDS011;20010;51.488;7.232;2023-07-31T06:14:20;11.57;;;8.50;;
33491;SDS011;20010;51.488;7.232;2023-07-31T06:16:46;9.73;;;7.93;;
33491;SDS011;20010;51.488;7.232;2023-07-31T06:19:13;9.55;;;8.07;;
33491;SDS011;20010;51.488;7.232;2023-07-31T06:21:39;9.85;;;7.47;;
33491;SDS011;20010;51.488;7.232;2023-07-31T06:24:09;9.52;;;7.60;;
33491;SDS011;20010;51.488;7.232;2023-07-31T06:26:35;10.30;;;7.80;;
33491;SDS011;20010;51.488;7.232;2023-07-31T06:29:02;9.35;;;7.43;;
33491;SDS011;20010;51.488;7.232;2023-07-31T06:31:29;8.15;;;7.28;;
33491;SDS011;20010;51.488;7.232;2023-07-31T06:33:56;8.85;;;6.63;;
33491;SDS011;20010;51.488;7.232;2023-07-31T06:36:22;10.98;;;7.32;;
33491;SDS011;20010;51.488;7.232;2023-07-31T06:38:49;10.88;;;7.93;;
33491;SDS011;20010;51.488;7.232;2023-07-31T06:41:15;13.27;;;8.60;;
33491;SDS011;20010;51.488;7.232;2023-07-31T06:43:42;17.23;;;8.88;;
33491;SDS011;20010;51.488;7.232;2023-07-31T06:46:09;12.10;;;9.15;;
33491;SDS011;20010;51.488;7.232;2023-07-31T06:48:36;9.88;;;7.82;;
33491;SDS011;20010;51.488;7.232;2023-07-31T06:51:03;8.93;;;8.07;;
33491;SDS011;20010;51.488;7.232;2023-07-31T06:53:30;13.60;;;8.65;;
33491;SDS011;20010;51.488;7.232;2023-07-31T06:55:57;8.48;;;7.68;;
33491;SDS011;20010;51.488;7.232;2023-07-31T06:58:23;11.75;;;8.00;;
33491;SDS011;20010;51.488;7.232;2023-07-31T07:00:50;10.50;;;7.88;;
33491;SDS011;20010;51.488;7.232;2023-07-31T07:03:18;7.45;;;6.75;;
33491;SDS011;20010;51.488;7.232;2023-07-31T07:05:44;7.47;;;6.70;;
33491;SDS011;20010;51.488;7.232;2023-07-31T07:08:11;8.73;;;7.53;;
33491;SDS011;20010;51.488;7.232;2023-07-31T07:10:37;9.52;;;7.38;;
33491;SDS011;20010;51.488;7.232;2023-07-31T07:13:04;9.02;;;7.05;;
33491;SDS011;20010;51.488;7.232;2023-07-31T07:15:30;9.50;;;6.57;;
33491;SDS011;20010;51.488;7.232;2023-07-31T07:17:57;11.30;;;7.28;;
33491;SDS011;20010;51.488;7.232;2023-07-31T07:20:24;8.70;;;7.13;;
33491;SDS011;20010;51.488;7.232;2023-07-31T07:22:50;7.95;;;7.15;;
33491;SDS011;20010;51.488;7.232;2023-07-31T07:25:17;8.32;;;6.75;;
33491;SDS011;20010;51.488;7.232;2023-07-31T07:27:43;11.05;;;7.53;;
33491;SDS011;20010;51.488;7.232;2023-07-31T07:30:10;9.55;;;7.35;;
33491;SDS011;20010;51.488;7.232;2023-07-31T07:32:36;11.27;;;7.38;;
33491;SDS011;20010;51.488;7.232;2023-07-31T07:35:03;8.07;;;6.93;;
33491;SDS011;20010;51.488;7.232;2023-07-31T07:37:30;8.57;;;7.43;;
33491;SDS011;20010;51.488;7.232;2023-07-31T07:39:58;13.07;;;7.43;;
33491;SDS011;20010;51.488;7.232;2023-07-31T07:42:25;11.18;;;7.40;;
33491;SDS011;20010;51.488;7.232;2023-07-31T07:44:52;10.73;;;6.95;;
33491;SDS011;20010;51.488;7.232;2023-07-31T07:47:18;9.82;;;7.07;;
33491;SDS011;20010;51.488;7.232;2023-07-31T07:49:45;7.88;;;6.40;;
33491;SDS011;20010;51.488;7.232;2023-07-31T07:52:18;7.32;;;6.68;;
33491;SDS011;20010;51.488;7.232;2023-07-31T07:54:44;9.93;;;6.65;;
33491;SDS011;20010;51.488;7.232;2023-07-31T07:57:11;11.50;;;7.95;;
33491;SDS011;20010;51.488;7.232;2023-07-31T07:59:38;7.95;;;7.13;;
33491;SDS011;20010;51.488;7.232;2023-07-31T08:02:04;7.20;;;6.30;;
33491;SDS011;20010;51.488;7.232;2023-07-31T08:04:31;6.97;;;6.30;;
33491;SDS011;20010;51.488;7.232;2023-07-31T08:06:58;8.93;;;6.68;;
33491;SDS011;20010;51.488;7.232;2023-07-31T08:09:24;7.38;;;6.68;;
33491;SDS011;20010;51.488;7.232;2023-07-31T08:11:51;9.23;;;6.68;;
33491;SDS011;20010;51.488;7.232;2023-07-31T08:14:17;6.65;;;6.00;;
33491;SDS011;20010;51.488;7.232;2023-07-31T08:16:44;7.25;;;6.22;;
33491;SDS011;20010;51.488;7.232;2023-07-31T08:19:11;7.88;;;7.10;;
33491;SDS011;20010;51.488;7.232;2023-07-31T08:21:38;6.80;;;6.22;;
33491;SDS011;20010;51.488;7.232;2023-07-31T08:24:04;7.32;;;5.55;;
33491;SDS011;20010;51.488;7.232;2023-07-31T08:26:31;6.10;;;5.47;;
33491;SDS011;20010;51.488;7.232;2023-07-31T08:28:58;8.90;;;6.38;;
33491;SDS011;20010;51.488;7.232;2023-07-31T08:31:25;6.50;;;5.47;;
33491;SDS011;20010;51.488;7.232;2023-07-31T08:33:53;6.72;;;6.13;;
33491;SDS011;20010;51.488;7.232;2023-07-31T08:36:19;7.53;;;6.70;;
33491;SDS011;20010;51.488;7.232;2023-07-31T08:38:46;5.88;;;5.38;;
33491;SDS011;20010;51.488;7.232;2023-07-31T08:41:13;5.72;;;5.22;;
33491;SDS011;20010;51.488;7.232;2023-07-31T08:43:39;6.05;;;5.45;;
33491;SDS011;20010;51.488;7.232;2023-07-31T08:46:06;6.05;;;5.28;;
33491;SDS011;20010;51.488;7.232;2023-07-31T08:48:34;6.35;;;5.32;;
33491;SDS011;20010;51.488;7.232;2023-07-31T08:51:01;6.07;;;5.57;;
33491;SDS011;20010;51.488;7.232;2023-07-31T08:53:28;7.90;;;5.55;;
33491;SDS011;20010;51.488;7.232;2023-07-31T08:55:55;6.00;;;5.38;;
33491;SDS011;20010;51.488;7.232;2023-07-31T08:58:22;7.95;;;5.38;;
33491;SDS011;20010;51.488;7.232;2023-07-31T09:00:50;5.85;;;5.22;;
33491;SDS011;20010;51.488;7.232;2023-07-31T09:03:19;6.45;;;5.53;;
33491;SDS011;20010;51.488;7.232;2023-07-31T09:05:49;5.82;;;5.40;;
33491;SDS011;20010;51.488;7.232;2023-07-31T09:08:20;6.88;;;5.47;;
33491;SDS011;20010;51.488;7.232;2023-07-31T09:10:48;5.50;;;4.85;;
33491;SDS011;20010;51.488;7.232;2023-07-31T09:13:17;5.60;;;5.10;;
33491;SDS011;20010;51.488;7.232;2023-07-31T09:15:44;8.23;;;5.80;;
33491;SDS011;20010;51.488;7.232;2023-07-31T09:18:12;6.05;;;5.55;;
33491;SDS011;20010;51.488;7.232;2023-07-31T09:20:40;6.18;;;5.60;;
33491;SDS011;20010;51.488;7.232;2023-07-31T09:25:34;6.32;;;5.75;;
33491;SDS011;20010;51.488;7.232;2023-07-31T09:28:03;7.43;;;5.80;;
33491;SDS011;20010;51.488;7.232;2023-07-31T09:30:32;7.15;;;6.45;;
33491;SDS011;20010;51.488;7.232;2023-07-31T09:33:10;5.95;;;5.45;;
33491;SDS011;20010;51.488;7.232;2023-07-31T09:35:37;5.55;;;5.00;;
33491;SDS011;20010;51.488;7.232;2023-07-31T09:38:07;5.22;;;4.82;;
33491;SDS011;20010;51.488;7.232;2023-07-31T09:40:39;5.35;;;4.82;;
33491;SDS011;20010;51.488;7.232;2023-07-31T09:43:17;5.28;;;4.78;;
33491;SDS011;20010;51.488;7.232;2023-07-31T09:45:45;5.28;;;4.88;;
33491;SDS011;20010;51.488;7.232;2023-07-31T09:48:13;4.75;;;4.45;;
33491;SDS011;20010;51.488;7.232;2023-07-31T09:50:52;5.28;;;4.78;;
33491;SDS011;20010;51.488;7.232;2023-07-31T09:53:19;4.10;;;3.80;;
33491;SDS011;20010;51.488;7.232;2023-07-31T09:55:46;4.45;;;4.05;;
33491;SDS011;20010;51.488;7.232;2023-07-31T09:58:12;4.32;;;3.97;;
33491;SDS011;20010;51.488;7.232;2023-07-31T10:00:39;4.93;;;4.38;;
33491;SDS011;20010;51.488;7.232;2023-07-31T10:03:07;4.95;;;4.55;;
33491;SDS011;20010;51.488;7.232;2023-07-31T10:05:53;4.55;;;4.15;;
33491;SDS011;20010;51.488;7.232;2023-07-31T10:08:20;4.60;;;4.30;;
33491;SDS011;20010;51.488;7.232;2023-07-31T10:10:48;4.90;;;4.50;;
33491;SDS011;20010;51.488;7.232;2023-07-31T10:13:15;4.43;;;4.13;;
33491;SDS011;20010;51.488;7.232;2023-07-31T10:15:41;4.57;;;4.07;;
33491;SDS011;20010;51.488;7.232;2023-07-31T10:18:10;4.45;;;4.10;;
33491;SDS011;20010;51.488;7.232;2023-07-31T10:20:37;4.63;;;4.32;;
33491;SDS011;20010;51.488;7.232;2023-07-31T10:23:03;4.72;;;4.30;;
33491;SDS011;20010;51.488;7.232;2023-07-31T10:25:30;4.45;;;4.05;;
33491;SDS011;20010;51.488;7.232;2023-07-31T10:27:58;3.67;;;3.47;;
33491;SDS011;20010;51.488;7.232;2023-07-31T10:30:27;4.50;;;4.10;;
33491;SDS011;20010;51.488;7.232;2023-07-31T10:35:22;3.97;;;3.67;;
33491;SDS011;20010;51.488;7.232;2023-07-31T10:37:49;4.18;;;3.80;;
33491;SDS011;20010;51.488;7.232;2023-07-31T10:40:18;4.43;;;4.13;;
33491;SDS011;20010;51.488;7.232;2023-07-31T10:42:52;4.35;;;4.05;;
33491;SDS011;20010;51.488;7.232;2023-07-31T10:48:01;4.07;;;3.78;;
33491;SDS011;20010;51.488;7.232;2023-07-31T10:50:32;3.90;;;3.63;;
33491;SDS011;20010;51.488;7.232;2023-07-31T10:53:03;5.43;;;4.32;;
33491;SDS011;20010;51.488;7.232;2023-07-31T10:58:06;4.70;;;4.35;;
33491;SDS011;20010;51.488;7.232;2023-07-31T11:00:33;5.13;;;4.72;;
33491;SDS011;20010;51.488;7.232;2023-07-31T11:08:30;6.20;;;5.70;;
33491;SDS011;20010;51.488;7.232;2023-07-31T11:13:27;7.03;;;5.78;;
33491;SDS011;20010;51.488;7.232;2023-07-31T11:15:58;5.30;;;4.90;;
33491;SDS011;20010;51.488;7.232;2023-07-31T11:18:28;7.88;;;5.80;;
33491;SDS011;20010;51.488;7.232;2023-07-31T11:20:55;6.53;;;5.90;;
33491;SDS011;20010;51.488;7.232;2023-07-31T11:23:22;6.40;;;5.68;;
33491;SDS011;20010;51.488;7.232;2023-07-31T11:25:49;5.38;;;4.68;;
33491;SDS011;20010;51.488;7.232;2023-07-31T11:28:17;6.60;;;5.95;;
33491;SDS011;20010;51.488;7.232;2023-07-31T11:30:45;6.63;;;6.03;;
33491;SDS011;20010;51.488;7.232;2023-07-31T11:33:12;9.57;;;6.40;;
33491;SDS011;20010;51.488;7.232;2023-07-31T11:38:11;7.15;;;6.47;;
33491;SDS011;20010;51.488;7.232;2023-07-31T11:40:42;8.38;;;6.25;;
33491;SDS011;20010;51.488;7.232;2023-07-31T11:43:09;6.18;;;5.13;;
33491;SDS011;20010;51.488;7.232;2023-07-31T11:45:40;5.20;;;4.68;;
33491;SDS011;20010;51.488;7.232;2023-07-31T11:48:06;6.00;;;5.07;;
33491;SDS011;20010;51.488;7.232;2023-07-31T11:50:33;5.22;;;4.72;;
33491;SDS011;20010;51.488;7.232;2023-07-31T11:53:03;5.55;;;5.05;;
33491;SDS011;20010;51.488;7.232;2023-07-31T11:55:34;6.80;;;5.65;;
33491;SDS011;20010;51.488;7.232;2023-07-31T11:58:02;6.10;;;5.43;;
33491;SDS011;20010;51.488;7.232;2023-07-31T12:00:29;5.88;;;5.32;;
33491;SDS011;20010;51.488;7.232;2023-07-31T12:02:56;4.68;;;4.28;;
33491;SDS011;20010;51.488;7.232;2023-07-31T12:05:23;10.38;;;5.57;;
33491;SDS011;20010;51.488;7.232;2023-07-31T12:07:50;6.53;;;4.97;;
33491;SDS011;20010;51.488;7.232;2023-07-31T12:15:38;6.93;;;4.90;;
33491;SDS011;20010;51.488;7.232;2023-07-31T12:18:16;5.32;;;4.53;;
33491;SDS011;20010;51.488;7.232;2023-07-31T12:23:17;4.68;;;4.28;;
33491;SDS011;20010;51.488;7.232;2023-07-31T12:25:44;4.90;;;4.50;;
33491;SDS011;20010;51.488;7.232;2023-07-31T12:28:11;4.53;;;3.92;;
33491;SDS011;20010;51.488;7.232;2023-07-31T12:30:38;4.60;;;4.20;;
33491;SDS011;20010;51.488;7.232;2023-07-31T12:33:07;6.30;;;4.10;;
33491;SDS011;20010;51.488;7.232;2023-07-31T12:35:48;4.50;;;4.10;;
33491;SDS011;20010;51.488;7.232;2023-07-31T12:38:15;5.28;;;4.78;;
33491;SDS011;20010;51.488;7.232;2023-07-31T12:40:41;5.32;;;4.82;;
33491;SDS011;20010;51.488;7.232;2023-07-31T12:43:08;6.70;;;6.15;;
33491;SDS011;20010;51.488;7.232;2023-07-31T12:45:35;4.75;;;4.28;;
33491;SDS011;20010;51.488;7.232;2023-07-31T12:48:02;5.57;;;3.78;;
33491;SDS011;20010;51.488;7.232;2023-07-31T12:50:28;6.00;;;4.43;;
33491;SDS011;20010;51.488;7.232;2023-07-31T12:52:55;5.10;;;4.25;;
33491;SDS011;20010;51.488;7.232;2023-07-31T12:55:23;4.65;;;4.35;;
33491;SDS011;20010;51.488;7.232;2023-07-31T12:57:50;4.55;;;4.22;;
33491;SDS011;20010;51.488;7.232;2023-07-31T13:00:18;4.80;;;4.20;;
33491;SDS011;20010;51.488;7.232;2023-07-31T13:02:44;5.05;;;4.65;;
33491;SDS011;20010;51.488;7.232;2023-07-31T13:05:11;4.57;;;4.25;;
33491;SDS011;20010;51.488;7.232;2023-07-31T13:07:40;4.90;;;4.30;;
33491;SDS011;20010;51.488;7.232;2023-07-31T13:10:07;4.88;;;4.47;;
33491;SDS011;20010;51.488;7.232;2023-07-31T13:12:34;5.38;;;3.70;;
33491;SDS011;20010;51.488;7.232;2023-07-31T13:15:01;4.72;;;3.92;;
33491;SDS011;20010;51.488;7.232;2023-07-31T13:17:28;5.40;;;4.90;;
33491;SDS011;20010;51.488;7.232;2023-07-31T13:19:54;4.80;;;4.38;;
33491;SDS011;20010;51.488;7.232;2023-07-31T13:22:21;4.55;;;4.15;;
33491;SDS011;20010;51.488;7.232;2023-07-31T13:24:47;4.78;;;4.22;;
33491;SDS011;20010;51.488;7.232;2023-07-31T13:27:14;4.32;;;3.78;;
33491;SDS011;20010;51.488;7.232;2023-07-31T13:29:50;5.25;;;3.90;;
33491;SDS011;20010;51.488;7.232;2023-07-31T13:32:17;4.43;;;4.03;;
33491;SDS011;20010;51.488;7.232;2023-07-31T13:34:46;4.53;;;4.13;;
33491;SDS011;20010;51.488;7.232;2023-07-31T13:37:13;7.60;;;4.10;;
33491;SDS011;20010;51.488;7.232;2023-07-31T13:39:40;4.25;;;3.95;;
33491;SDS011;20010;51.488;7.232;2023-07-31T13:42:07;4.78;;;4.43;;
33491;SDS011;20010;51.488;7.232;2023-07-31T13:44:35;4.10;;;3.67;;
33491;SDS011;20010;51.488;7.232;2023-07-31T13:47:01;4.28;;;3.97;;
33491;SDS011;20010;51.488;7.232;2023-07-31T13:49:29;4.45;;;4.15;;
33491;SDS011;20010;51.488;7.232;2023-07-31T13:51:56;5.38;;;4.65;;
33491;SDS011;20010;51.488;7.232;2023-07-31T13:54:23;4.70;;;4.40;;
33491;SDS011;20010;51.488;7.232;2023-07-31T13:56:50;6.55;;;4.47;;
33491;SDS011;20010;51.488;7.232;2023-07-31T13:59:16;5.20;;;4.88;;
33491;SDS011;20010;51.488;7.232;2023-07-31T14:01:43;4.47;;;4.07;;
33491;SDS011;20010;51.488;7.232;2023-07-31T14:04:10;4.38;;;4.07;;
33491;SDS011;20010;51.488;7.232;2023-07-31T14:06:37;4.18;;;3.97;;
33491;SDS011;20010;51.488;7.232;2023-07-31T14:09:04;4.78;;;4.38;;
33491;SDS011;20010;51.488;7.232;2023-07-31T14:11:31;5.68;;;5.18;;
33491;SDS011;20010;51.488;7.232;2023-07-31T14:13:58;5.10;;;4.40;;
33491;SDS011;20010;51.488;7.232;2023-07-31T14:16:24;5.80;;;5.10;;
33491;SDS011;20010;51.488;7.232;2023-07-31T14:18:51;5.95;;;4.85;;
33491;SDS011;20010;51.488;7.232;2023-07-31T14:21:20;4.65;;;4.25;;
33491;SDS011;20010;51.488;7.232;2023-07-31T14:23:46;5.55;;;5.05;;
33491;SDS011;20010;51.488;7.232;2023-07-31T14:26:13;5.55;;;5.05;;
33491;SDS011;20010;51.488;7.232;2023-07-31T14:28:39;5.22;;;4.70;;
33491;SDS011;20010;51.488;7.232;2023-07-31T14:31:06;4.57;;;4.18;;
33491;SDS011;20010;51.488;7.232;2023-07-31T14:33:33;7.45;;;5.13;;
33491;SDS011;20010;51.488;7.232;2023-07-31T14:36:00;6.22;;;5.30;;
33491;SDS011;20010;51.488;7.232;2023-07-31T14:38:27;6.18;;;5.57;;
33491;SDS011;20010;51.488;7.232;2023-07-31T14:40:53;5.82;;;5.28;;
33491;SDS011;20010;51.488;7.232;2023-07-31T14:43:20;5.10;;;4.70;;
33491;SDS011;20010;51.488;7.232;2023-07-31T14:45:46;7.00;;;4.78;;
33491;SDS011;20010;51.488;7.232;2023-07-31T14:48:13;7.20;;;5.13;;
33491;SDS011;20010;51.488;7.232;2023-07-31T14:50:39;4.90;;;4.50;;
33491;SDS011;20010;51.488;7.232;2023-07-31T14:53:06;5.75;;;5.25;;
33491;SDS011;20010;51.488;7.232;2023-07-31T14:55:33;5.18;;;4.78;;
33491;SDS011;20010;51.488;7.232;2023-07-31T14:57:59;5.90;;;5.40;;
33491;SDS011;20010;51.488;7.232;2023-07-31T15:00:26;5.43;;;4.93;;
33491;SDS011;20010;51.488;7.232;2023-07-31T15:02:52;7.00;;;4.75;;
33491;SDS011;20010;51.488;7.232;2023-07-31T15:05:19;6.57;;;5.28;;
33491;SDS011;20010;51.488;7.232;2023-07-31T15:07:46;5.55;;;5.15;;
33491;SDS011;20010;51.488;7.232;2023-07-31T15:10:12;5.95;;;5.45;;
33491;SDS011;20010;51.488;7.232;2023-07-31T15:12:39;6.10;;;5.57;;
33491;SDS011;20010;51.488;7.232;2023-07-31T15:15:06;5.38;;;4.97;;
33491;SDS011;20010;51.488;7.232;2023-07-31T15:17:33;6.00;;;5.57;;
33491;SDS011;20010;51.488;7.232;2023-07-31T15:20:00;7.15;;;5.35;;
33491;SDS011;20010;51.488;7.232;2023-07-31T15:22:29;6.07;;;5.28;;